Lahore Weather



Lahore's Current Weather

Temprature 12o mist

mist

Rain: 0 %

Min Temprature12o
Max Temprature12o
Humidity81
Wind Speed1.28 m/h
Sun Rise06:52:20
Sun Set17:00:08
Current Time: 12-Dec-2019 01:29:56
Lat/Lon: 31.52, 74.33




Lahore's Geo Location



Lahore's Weather Forecast

Time Overall Temp Min Temp Max Temp Humidity Wind Speed Rain
12-Dec-2019 (Thu)
02:00:00 overcast clouds 12.710 12.710 15.330 29 1.28 m/h 0 %
05:00:00 overcast clouds 12.280 12.280 14.240 32 1.93 m/h 0 %
08:00:00 overcast clouds 14.060 14.060 15.370 34 0.81 m/h 0 %
11:00:00 overcast clouds 17.210 17.210 17.860 34 5.32 m/h 0 %
14:00:00 moderate rain 12.640 12.640 12.640 84 2.94 m/h 513 %
17:00:00 moderate rain 11.490 11.490 11.490 88 3.96 m/h 644 %
20:00:00 moderate rain 11.210 11.210 11.210 89 4 m/h 425 %
23:00:00 light rain 12.040 12.040 12.040 92 1.92 m/h 156 %
13-Dec-2019 (Fri)
02:00:00 moderate rain 12.440 12.440 12.440 93 1.83 m/h 506 %
05:00:00 light rain 12.440 12.440 12.440 93 0.53 m/h 288 %
08:00:00 light rain 12.630 12.630 12.630 92 0.95 m/h 163 %
11:00:00 light rain 13.980 13.980 13.980 81 2.83 m/h 25 %
14:00:00 broken clouds 15.680 15.680 15.680 69 3.01 m/h 0 %
17:00:00 scattered clouds 14.070 14.070 14.070 73 1.83 m/h 0 %
20:00:00 few clouds 12.670 12.670 12.670 78 0.55 m/h 0 %
23:00:00 clear sky 11.770 11.770 11.770 81 1.15 m/h 0 %
14-Dec-2019 (Sat)
02:00:00 clear sky 11.170 11.170 11.170 81 1.25 m/h 0 %
05:00:00 clear sky 10.430 10.430 10.430 82 0.35 m/h 0 %
08:00:00 clear sky 11.410 11.410 11.410 80 1.51 m/h 0 %
11:00:00 clear sky 16.440 16.440 16.440 58 1.39 m/h 0 %
14:00:00 clear sky 18.180 18.180 18.180 49 1.1 m/h 0 %
17:00:00 clear sky 15.370 15.370 15.370 57 1.7 m/h 0 %
20:00:00 clear sky 13.750 13.750 13.750 65 1.79 m/h 0 %
23:00:00 clear sky 12.640 12.640 12.640 70 1.46 m/h 0 %
15-Dec-2019 (Sun)
02:00:00 overcast clouds 11.940 11.940 11.940 74 1.22 m/h 0 %
05:00:00 overcast clouds 11.030 11.030 11.030 79 1.38 m/h 0 %
08:00:00 broken clouds 11.910 11.910 11.910 78 1.38 m/h 0 %
11:00:00 scattered clouds 16.420 16.420 16.420 59 1.92 m/h 0 %
14:00:00 clear sky 18.360 18.360 18.360 46 1.74 m/h 0 %
17:00:00 clear sky 15.480 15.480 15.480 55 1.25 m/h 0 %
20:00:00 clear sky 13.890 13.890 13.890 62 1.31 m/h 0 %
23:00:00 clear sky 12.810 12.810 12.810 68 1.22 m/h 0 %
16-Dec-2019 (Mon)
02:00:00 clear sky 11.690 11.690 11.690 73 0.93 m/h 0 %
05:00:00 clear sky 10.840 10.840 10.840 76 1.1 m/h 0 %
08:00:00 clear sky 11.960 11.960 11.960 71 1.01 m/h 0 %
11:00:00 clear sky 17.270 17.270 17.270 47 2.34 m/h 0 %
14:00:00 clear sky 19.020 19.020 19.020 40 2.57 m/h 0 %
17:00:00 clear sky 15.780 15.780 15.780 49 1.91 m/h 0 %
20:00:00 clear sky 13.780 13.780 13.780 51 1.53 m/h 0 %
23:00:00 clear sky 12.660 12.660 12.660 55 1.27 m/h 0 %


Lahore's Tourist Spots

Historical Places in Lahore

Famous Cities (61)